• Join FlightAware (Why Join?)
  • Login
  • US Flag 
06:23PM EDT


 

Airport Tracker/Info


-or-


 

Live Flight TrackerFlight Track Log ✈ OPT438 ✈ 13-Feb-2014 ✈ KMSN - KADS

Flight Track Log - Related Links

Times and Time Zones

All times are in EST time to prevent confusion due to time zone crossing. See the OPT438 flight status page for this flight to view local times or setup timezone preferences in your user account.

Time Position Orientation Groundspeed Altitude Reporting Facility
EST Latitude Longitude Course Direction KTS MPH feet Rate Location/Type
08:23AM 43.0589 -89.3872 205° Southwest 202 232 6,400  Level Chicago Center
08:24AM 43.0031 -89.4267 207° Southwest 221 254 8,900 2,580 Climbing Chicago Center
08:25AM 42.9397 -89.4667 205° Southwest 242 278 11,800 2,340 Climbing Chicago Center
08:26AM 42.8700 -89.4989 199° South 258 297 13,800 2,160 Climbing Chicago Center
08:28AM 42.6772 -89.6652 206° Southwest  Level FlightAware Approximate
08:28AM 42.7833 -89.5561 206° Southwest 283 326 16,300  Level Chicago Center
08:29AM 42.7097 -89.6078 207° Southwest 294 338 18,300 1,800 Climbing Chicago Center
08:30AM 42.6283 -89.6658 208° Southwest 320 368 20,000 780 Climbing Chicago Center
08:31AM 42.5392 -89.7289 208° Southwest 351 404 20,000 360 Level Chicago Center
08:32AM 42.4483 -89.7947 208° Southwest 368 423 20,800 1,740 Climbing Chicago Center
08:33AM 42.3617 -89.8550 207° Southwest 358 412 23,600 2,580 Climbing Chicago Center
08:34AM 42.2789 -89.9142 208° Southwest 329 379 26,200 2,040 Climbing Chicago Center
08:35AM 42.2000 -89.9731 209° Southwest 325 374 27,900 1,620 Climbing Chicago Center
08:36AM 42.1181 -90.0311 208° Southwest 331 381 29,600 1,440 Climbing Chicago Center
08:37AM 42.0356 -90.0872 207° Southwest 333 383 30,900 1,320 Climbing Chicago Center
08:38AM 41.9333 -90.1586 207° Southwest 341 392 32,400 1,200 Climbing Chicago Center
08:39AM 41.8483 -90.2178 207° Southwest 344 396 33,400 840 Climbing Chicago Center
08:40AM 41.7700 -90.2733 208° Southwest 352 405 34,200 780 Climbing Chicago Center
08:41AM 41.6819 -90.3347 208° Southwest 358 412 35,000 720 Climbing Chicago Center
08:42AM 41.5722 -90.4111 208° Southwest 370 426 35,700 600 Climbing Chicago Center
08:43AM 41.4778 -90.4719 206° Southwest 376 433 36,300 540 Climbing Chicago Center
08:44AM 41.3831 -90.5372 207° Southwest 382 440 36,900 600 Climbing Chicago Center
08:45AM 41.2894 -90.6014 207° Southwest 381 438 37,600 540 Climbing Chicago Center
08:46AM 41.1947 -90.6678 208° Southwest 385 443 38,000 180 Climbing Chicago Center
08:47AM 41.0992 -90.7325 207° Southwest 386 444 38,000  Level Chicago Center
08:48AM 41.0008 -90.8008 208° Southwest 398 458 38,000  Level Chicago Center
08:49AM 40.8983 -90.8692 207° Southwest 412 474 38,000  Level Chicago Center
08:50AM 40.7744 -90.9525 207° Southwest 418 481 38,000  Level Chicago Center
08:51AM 40.6681 -91.0231 207° Southwest 426 490 38,000  Level Chicago Center
08:52AM 40.5614 -91.0939 207° Southwest 430 495 38,000  Level Chicago Center
08:53AM 40.4550 -91.1656 207° Southwest 430 495 38,000  Level Chicago Center
08:54AM 40.3467 -91.2361 206° Southwest 434 499 38,000  Level Chicago Center
08:55AM 40.2239 -91.3175 207° Southwest 436 502 38,000  Level Kansas City Center
08:56AM 40.1161 -91.3897 207° Southwest 436 502 38,000  Level Kansas City Center
08:57AM 40.0069 -91.4603 206° Southwest 437 503 38,000  Level Kansas City Center
08:58AM 39.8967 -91.5328 207° Southwest 441 507 38,000  Level Kansas City Center
08:59AM 39.7878 -91.6025 206° Southwest 439 505 38,000  Level Kansas City Center
09:00AM 39.6781 -91.6742 207° Southwest 439 505 38,000  Level Kansas City Center
09:01AM 39.5458 -91.7589 206° Southwest 442 509 38,000  Level Kansas City Center
09:02AM 39.4356 -91.8292 206° Southwest 441 507 38,000  Level Kansas City Center
09:03AM 39.3250 -91.8997 206° Southwest 442 509 38,000  Level Kansas City Center
09:04AM 39.2150 -91.9700 206° Southwest 442 509 38,000  Level Kansas City Center
09:05AM 39.1044 -92.0419 207° Southwest 442 509 38,000  Level Kansas City Center
09:06AM 38.9933 -92.1125 206° Southwest 443 510 38,000  Level Kansas City Center
09:07AM 38.8814 -92.1825 206° Southwest 445 512 38,000  Level Kansas City Center
09:08AM 38.7700 -92.2533 206° Southwest 446 513 38,000  Level Kansas City Center
09:10AM 38.6583 -92.3236 206° Southwest 446 513 38,000  Level Kansas City Center
09:11AM 38.5233 -92.4072 206° Southwest 449 517 38,000  Level Kansas City Center
09:12AM 38.4111 -92.4761 206° Southwest 448 516 38,000  Level Kansas City Center
09:13AM 38.2986 -92.5472 206° Southwest 450 518 38,000  Level Kansas City Center
09:14AM 38.1928 -92.6119 206° Southwest 450 518 38,000  Level Kansas City Center
09:15AM 38.0808 -92.6811 206° Southwest 449 517 38,000  Level Kansas City Center
09:16AM 37.9656 -92.7517 206° Southwest 447 514 38,000  Level Kansas City Center
09:17AM 37.8550 -92.8181 205° Southwest 444 511 38,000  Level Kansas City Center
09:18AM 37.7442 -92.8858 206° Southwest 443 510 38,000  Level Kansas City Center
09:19AM 37.6114 -92.9656 205° Southwest 441 507 38,000  Level Kansas City Center
09:20AM 37.5011 -93.0297 205° Southwest 437 503 38,000  Level Kansas City Center
09:21AM 37.3922 -93.0969 206° Southwest 435 501 38,000  Level Kansas City Center
09:22AM 37.2831 -93.1603 205° Southwest 432 497 38,000  Level Kansas City Center
09:23AM 37.1753 -93.2258 206° Southwest 429 494 38,000  Level Kansas City Center
09:24AM 37.0669 -93.2922 206° Southwest 431 496 38,000  Level Kansas City Center
09:25AM 36.9586 -93.3569 206° Southwest 430 495 38,000  Level Kansas City Center
09:26AM 36.8453 -93.4222 205° Southwest 431 496 38,000  Level Kansas City Center
09:27AM 36.7386 -93.4872 206° Southwest 429 494 38,000  Level Kansas City Center
09:28AM 36.6325 -93.5506 206° Southwest 425 489 38,000  Level Kansas City Center
09:29AM 36.5258 -93.6139 206° Southwest 425 489 38,000  Level Kansas City Center
09:30AM 36.4197 -93.6761 205° Southwest 424 488 38,000  Level Kansas City Center
09:31AM 36.2919 -93.7506 205° Southwest 425 489 38,000  Level Kansas City Center
09:32AM 36.1636 -93.8253 205° Southwest 422 486 38,000  Level Memphis Center
09:33AM 36.0572 -93.8878 205° Southwest 423 487 38,000  Level Memphis Center
09:34AM 35.9508 -93.9483 205° Southwest 423 487 38,000  Level Memphis Center
09:35AM 35.8456 -94.0094 205° Southwest 423 487 38,000  Level Memphis Center
09:36AM 35.7153 -94.0839 205° Southwest 424 488 38,000  Level Memphis Center
09:37AM 35.6094 -94.1444 205° Southwest 426 490 38,000  Level Memphis Center
09:38AM 35.5028 -94.2053 205° Southwest 425 489 38,000  Level Memphis Center
09:39AM 35.3950 -94.2678 205° Southwest 427 491 38,000  Level Memphis Center
09:40AM 35.3122 -94.3567 221° Southwest 398 458 38,000  Level Memphis Center
09:42AM 35.2289 -94.4461 221° Southwest 399 459 38,000  Level Memphis Center
09:43AM 35.1450 -94.5350 221° Southwest 401 461 38,000  Level Memphis Center
09:44AM 35.0558 -94.6328 222° Southwest 402 463 38,000  Level Fort Worth Center
09:45AM 34.9542 -94.7431 222° Southwest 405 466 38,000  Level Fort Worth Center
09:46AM 34.8689 -94.8356 222° Southwest 406 467 38,000  Level Fort Worth Center
09:47AM 34.7922 -94.9136 220° Southwest 401 461 38,000  Level Fort Worth Center
09:48AM 34.7006 -94.9994 218° Southwest 411 473 38,000  Level Fort Worth Center
09:49AM 34.5903 -95.1053 218° Southwest 419 482 38,000 -300 Level Fort Worth Center
09:50AM 34.4989 -95.1908 218° Southwest 416 479 37,400 -1,020 Descending Fort Worth Center
09:51AM 34.4092 -95.2764 218° Southwest 413 475 35,900 -1,500 Descending Fort Worth Center
09:52AM 34.3200 -95.3586 217° Southwest 406 467 34,300 -2,040 Descending Fort Worth Center
09:53AM 34.2322 -95.4408 218° Southwest 401 461 31,800 -2,640 Descending Fort Worth Center
09:54AM 34.1267 -95.5394 218° Southwest 402 463 28,900 -2,520 Descending Fort Worth Center
09:55AM 34.0367 -95.6236 218° Southwest 408 470 26,600 -2,220 Descending Fort Worth Center
09:56AM 33.9406 -95.7131 218° Southwest 433 498 24,300 -2,160 Descending Fort Worth Center
09:57AM 33.8453 -95.8014 218° Southwest 435 501 22,200 -2,040 Descending Fort Worth Center
09:58AM 33.7511 -95.8894 218° Southwest 429 494 20,100 -2,280 Descending Fort Worth Center
09:59AM 33.6400 -95.9900 217° Southwest 416 479 17,600 -2,280 Descending Fort Worth Center
10:00AM 33.5500 -96.0717 217° Southwest 408 470 15,500 -2,040 Descending Fort Worth Center
10:01AM 33.4606 -96.1519 217° Southwest 376 433 13,500 -1,920 Descending Fort Worth Center
10:02AM 33.3775 -96.2289 218° Southwest 377 434 11,600 -1,800 Descending Fort Worth Center
10:03AM 33.2953 -96.3047 218° Southwest 343 395 9,900 -1,800 Descending Fort Worth Center
10:04AM 33.2536 -96.3836 238° Southwest 282 325 7,900 -1,800 Descending Fort Worth Center
10:05AM 33.2125 -96.4608 238° Southwest 261 300 6,200 -1,560 Descending Fort Worth Center
10:06AM 33.1833 -96.5167 238° Southwest 265 305 5,000 -960 Descending Dallas / Fort Worth TRACON
10:07AM 33.1500 -96.6000 244° Southwest 251 289 4,500 -480 Descending Dallas / Fort Worth TRACON
10:08AM 33.1167 -96.6833 244° Southwest 263 303 4,000 -300 Descending Dallas / Fort Worth TRACON
10:09AM 33.0833 -96.7667 244° Southwest 261 300 3,900 -420 Descending Dallas / Fort Worth TRACON
10:10AM 33.0500 -96.8333 239° Southwest 212 244 3,200 -900 Descending Dallas / Fort Worth TRACON
10:11AM 33.0333 -96.8500 220° Southwest 99 114 2,100 -1,080 Descending Dallas / Fort Worth TRACON
10:12AM 33.0000 -96.8500 180° South 109 125 1,100 -1,020 Descending Dallas / Fort Worth TRACON
10:16AM 32.9667 -96.8333 239° Southwest  Level FlightAware Approximate